Time;durP1;ratioP1;P1;durP2;ratioP2;P2;SDS_P1;SDS_P2;PMS_P1;PMS_P2;Temp;Humidity;BMP_temperature;BMP_pressure;BME280_temperature;BME280_humidity;BME280_pressure;Samples;Min_cycle;Max_cycle;Signal;HPM_P1;HPM_P2
2022/03/27 00:00:46;;;;;;;7.63;3.30;;;12.20;74.20;;;;;;20664443;28;20455;-59
2022/03/27 00:21:08;;;;;;;5.63;2.38;;;12.20;73.50;;;;;;20679741;28;20482;-58
2022/03/27 00:31:11;;;;;;;3.85;2.38;;;12.20;73.50;;;;;;20679921;28;20495;-59
2022/03/27 00:41:14;;;;;;;7.22;3.20;;;12.20;73.40;;;;;;20678320;28;20061;-59
2022/03/27 00:51:15;;;;;;;8.43;2.85;;;12.10;73.60;;;;;;20677368;28;20054;-60
2022/03/27 01:01:22;;;;;;;8.73;2.88;;;12.00;73.70;;;;;;20676489;28;20058;-60
2022/03/27 01:11:24;;;;;;;9.25;3.47;;;12.00;73.90;;;;;;20674391;28;20384;-59
2022/03/27 01:21:26;;;;;;;8.32;3.38;;;12.00;73.90;;;;;;20674707;28;20133;-58
2022/03/27 01:31:28;;;;;;;5.53;3.22;;;12.00;73.80;;;;;;20672818;28;20054;-59
2022/03/27 01:41:31;;;;;;;9.10;3.65;;;11.90;73.90;;;;;;20672079;28;20050;-58
2022/03/27 01:51:34;;;;;;;8.68;4.13;;;12.00;73.90;;;;;;20673297;28;20501;-59
2022/03/27 02:01:37;;;;;;;8.60;3.80;;;12.00;73.90;;;;;;20671151;28;20050;-59
2022/03/27 02:11:41;;;;;;;11.80;4.75;;;11.90;74.20;;;;;;20670222;28;20054;-57
2022/03/27 02:21:43;;;;;;;11.57;4.28;;;11.90;74.40;;;;;;20670085;28;20054;-58
2022/03/27 02:31:45;;;;;;;3.63;1.77;;;11.80;74.30;;;;;;20667982;28;20062;-58
2022/03/27 02:41:57;;;;;;;3.60;1.70;;;11.70;74.80;;;;;;20668129;28;20495;-58
2022/03/27 02:52:03;;;;;;;5.15;1.75;;;11.70;75.00;;;;;;20668073;28;20054;-57
2022/03/27 03:02:11;;;;;;;4.27;1.97;;;11.60;75.10;;;;;;20681132;28;20459;-57
2022/03/27 03:12:13;;;;;;;3.58;1.45;;;11.60;75.10;;;;;;20666327;28;20133;-59
2022/03/27 03:22:17;;;;;;;1.42;0.70;;;11.60;75.10;;;;;;20667971;28;20153;-58
2022/03/27 03:32:24;;;;;;;2.00;0.80;;;11.50;74.80;;;;;;20665685;28;20051;-59
2022/03/27 03:42:30;;;;;;;3.22;0.98;;;11.40;74.60;;;;;;20665140;28;20141;-58
2022/03/27 03:52:51;;;;;;;2.00;0.70;;;11.50;74.40;;;;;;20681302;28;20046;-58
2022/03/27 04:03:13;;;;;;;2.88;0.80;;;11.40;74.00;;;;;;20681021;28;20054;-59
2022/03/27 04:13:28;;;;;;;2.92;0.73;;;11.40;73.90;;;;;;20680284;28;20050;-57
2022/03/27 04:23:36;;;;;;;2.83;0.90;;;11.30;73.70;;;;;;20679305;28;20537;-59
2022/03/27 04:33:41;;;;;;;2.25;0.90;;;11.30;73.50;;;;;;20678322;28;20052;-58
2022/03/27 04:43:48;;;;;;;0.60;0.60;;;11.30;73.70;;;;;;20677239;28;20054;-59
2022/03/27 04:53:54;;;;;;;1.33;0.70;;;11.30;73.20;;;;;;20677472;28;20133;-58
2022/03/27 05:03:59;;;;;;;1.83;1.00;;;11.20;72.90;;;;;;20676199;28;20085;-58
2022/03/27 05:14:03;;;;;;;4.53;1.30;;;11.20;72.60;;;;;;20675302;28;20050;-58
2022/03/27 05:24:08;;;;;;;3.88;1.10;;;11.20;72.50;;;;;;20674784;28;20085;-58
2022/03/27 05:34:11;;;;;;;5.05;1.55;;;11.20;72.50;;;;;;20675044;28;20047;-57
2022/03/27 05:44:13;;;;;;;3.30;1.50;;;11.10;72.70;;;;;;20673857;28;20410;-58
2022/03/27 05:54:15;;;;;;;4.43;1.65;;;11.10;72.70;;;;;;20672798;28;20051;-59
2022/03/27 06:04:17;;;;;;;3.67;1.80;;;11.10;72.80;;;;;;20671886;28;20124;-57
2022/03/27 06:14:19;;;;;;;4.00;1.98;;;11.10;72.80;;;;;;20670727;28;20126;-57
2022/03/27 06:24:22;;;;;;;4.45;1.58;;;11.10;72.80;;;;;;20669877;28;20174;-59
2022/03/27 06:34:26;;;;;;;4.80;2.17;;;11.10;72.70;;;;;;20669412;28;20054;-59
2022/03/27 06:44:28;;;;;;;11.77;2.28;;;11.20;72.70;;;;;;20684250;28;20085;-58
2022/03/27 06:54:30;;;;;;;4.63;1.77;;;11.20;72.60;;;;;;20668069;28;20061;-58
2022/03/27 07:04:33;;;;;;;5.35;2.13;;;11.30;72.50;;;;;;20683843;28;20054;-58
2022/03/27 07:14:34;;;;;;;6.03;2.55;;;11.40;72.10;;;;;;20666632;28;20108;-58
2022/03/27 07:24:36;;;;;;;5.22;2.45;;;11.50;71.90;;;;;;20667045;28;20061;-57
2022/03/27 07:34:40;;;;;;;6.88;2.78;;;11.60;71.70;;;;;;20666730;28;20073;-59
2022/03/27 07:44:42;;;;;;;4.38;2.42;;;11.80;71.20;;;;;;20665559;28;20050;-56
2022/03/27 07:54:44;;;;;;;6.82;2.70;;;11.90;70.80;;;;;;20665827;28;20065;-58
2022/03/27 08:04:48;;;;;;;5.75;2.95;;;12.10;70.50;;;;;;20665565;28;20089;-58
2022/03/27 08:14:50;;;;;;;14.25;3.30;;;12.30;70.10;;;;;;20664354;28;20053;-58
2022/03/27 08:24:52;;;;;;;12.77;3.15;;;14.20;66.40;;;;;;20663009;28;20056;-59
2022/03/27 08:34:54;;;;;;;5.28;2.33;;;15.10;63.50;;;;;;20667237;28;20125;-59
2022/03/27 08:44:57;;;;;;;6.97;3.20;;;15.30;62.40;;;;;;20675660;28;20050;-60
2022/03/27 08:55:04;;;;;;;9.05;3.22;;;14.90;62.80;;;;;;20672446;28;20065;-64
2022/03/27 09:05:06;;;;;;;4.23;2.83;;;14.10;64.80;;;;;;20669750;28;20085;-60
2022/03/27 09:15:09;;;;;;;8.02;3.20;;;14.00;64.90;;;;;;20667002;28;20137;-59
2022/03/27 09:25:10;;;;;;;11.38;3.45;;;14.30;63.80;;;;;;20666756;28;20137;-59
2022/03/27 09:35:15;;;;;;;12.15;3.42;;;14.60;62.90;;;;;;20663630;28;20155;-58
2022/03/27 09:45:23;;;;;;;6.68;2.80;;;14.50;62.50;;;;;;20666474;28;20081;-61
2022/03/27 09:55:24;;;;;;;7.28;3.53;;;14.60;62.00;;;;;;20667161;28;20042;-61
2022/03/27 10:05:31;;;;;;;7.18;3.45;;;14.60;61.90;;;;;;20662879;28;20050;-59
2022/03/27 10:15:34;;;;;;;7.40;3.35;;;15.00;60.60;;;;;;20665752;28;20046;-60
2022/03/27 10:25:44;;;;;;;6.00;2.97;;;15.10;59.70;;;;;;20667224;28;20101;-59
2022/03/27 10:35:52;;;;;;;7.63;2.92;;;15.30;59.10;;;;;;20666272;28;20050;-60
2022/03/27 10:46:20;;;;;;;31.35;25.38;;;15.40;58.80;;;;;;20666643;28;20077;-57
2022/03/27 10:56:46;;;;;;;8.13;3.10;;;17.10;57.20;;;;;;20560600;28;20073;-59
2022/03/27 11:06:49;;;;;;;9.10;3.53;;;16.70;55.50;;;;;;20260943;29;20527;-63
2022/03/27 11:17:06;;;;;;;7.03;3.85;;;16.40;56.80;;;;;;20260545;29;20092;-60
2022/03/27 11:27:46;;;;;;;8.20;3.38;;;16.10;57.10;;;;;;20301812;29;20087;-60
2022/03/27 11:38:28;;;;;;;6.45;3.42;;;15.70;57.20;;;;;;20486633;28;20047;-60
2022/03/27 11:48:29;;;;;;;7.05;4.40;;;15.50;58.20;;;;;;20662630;28;20057;-60
2022/03/27 11:58:30;;;;;;;10.93;3.60;;;15.50;58.30;;;;;;20664335;28;20130;-59
2022/03/27 12:08:40;;;;;;;11.93;6.72;;;15.20;58.80;;;;;;20670703;28;20050;-60
2022/03/27 12:18:44;;;;;;;51.03;27.70;;;15.50;58.80;;;;;;20680057;28;20065;-59
2022/03/27 12:39:25;;;;;;;11.52;5.70;;;15.20;59.90;;;;;;20508325;28;20083;-60
2022/03/27 12:49:26;;;;;;;7.60;3.75;;;15.60;59.30;;;;;;20508912;28;20151;-60
2022/03/27 12:59:28;;;;;;;11.32;3.70;;;16.20;58.00;;;;;;20506853;28;20408;-58
2022/03/27 13:09:29;;;;;;;8.07;2.95;;;16.50;56.90;;;;;;20645106;28;20075;-62
2022/03/27 13:19:44;;;;;;;5.07;2.95;;;16.50;56.10;;;;;;20673518;28;20077;-60
2022/03/27 13:29:46;;;;;;;14.38;3.83;;;16.60;55.60;;;;;;20673602;28;20422;-58
2022/03/27 13:39:47;;;;;;;15.27;3.50;;;16.60;55.40;;;;;;20672540;28;20062;-60
2022/03/27 13:49:48;;;;;;;9.32;2.95;;;16.70;55.10;;;;;;20672265;28;20054;-61
2022/03/27 13:59:51;;;;;;;13.27;3.97;;;16.90;54.00;;;;;;20673606;28;20050;-60
2022/03/27 14:09:52;;;;;;;14.95;3.40;;;17.20;52.70;;;;;;20670059;28;20113;-60
2022/03/27 14:19:54;;;;;;;12.60;4.00;;;17.00;52.90;;;;;;20670529;28;20057;-60
2022/03/27 14:29:55;;;;;;;22.30;4.50;;;16.90;52.80;;;;;;20667616;28;20062;-60
2022/03/27 14:39:58;;;;;;;26.63;4.53;;;16.70;52.30;;;;;;20666717;28;20109;-60
2022/03/27 14:50:09;;;;;;;20.85;4.55;;;16.70;51.90;;;;;;20668121;28;20054;-60
2022/03/27 15:00:11;;;;;;;21.40;4.07;;;16.80;51.60;;;;;;20666996;28;20062;-60
2022/03/27 15:10:13;;;;;;;24.55;5.30;;;16.60;51.90;;;;;;20664816;28;20133;-61
2022/03/27 15:20:14;;;;;;;24.73;5.55;;;16.70;51.60;;;;;;20665828;28;20050;-62
2022/03/27 15:30:16;;;;;;;20.55;4.43;;;16.70;52.10;;;;;;20665089;28;20070;-61
2022/03/27 15:40:18;;;;;;;23.50;6.05;;;16.60;52.40;;;;;;20668001;28;20046;-60
2022/03/27 15:50:22;;;;;;;25.55;5.60;;;16.50;52.60;;;;;;20680961;28;20065;-61
2022/03/27 16:00:24;;;;;;;29.98;5.93;;;16.40;52.50;;;;;;20681453;28;20424;-61
2022/03/27 16:10:26;;;;;;;24.58;4.72;;;16.50;52.10;;;;;;20680989;28;20054;-62
2022/03/27 16:20:28;;;;;;;20.90;5.20;;;16.60;51.70;;;;;;20679573;28;20053;-59
2022/03/27 16:30:30;;;;;;;23.23;4.30;;;16.40;51.80;;;;;;20678971;28;20149;-61
2022/03/27 16:40:32;;;;;;;19.75;4.80;;;16.30;52.20;;;;;;20677824;28;20050;-61
2022/03/27 16:50:34;;;;;;;20.02;4.15;;;16.30;52.40;;;;;;20677074;28;20466;-60
2022/03/27 17:00:36;;;;;;;18.40;4.15;;;16.40;52.30;;;;;;20676705;28;20466;-61
2022/03/27 17:10:38;;;;;;;21.05;4.75;;;16.30;52.50;;;;;;20674815;28;20068;-61
2022/03/27 17:20:40;;;;;;;21.92;3.83;;;16.20;52.70;;;;;;20690422;28;20167;-60
2022/03/27 17:30:42;;;;;;;21.13;5.00;;;16.20;52.90;;;;;;20674250;28;20078;-61
2022/03/27 17:40:44;;;;;;;16.67;4.05;;;16.10;53.10;;;;;;20673408;28;20117;-60
2022/03/27 17:50:46;;;;;;;11.18;3.45;;;16.00;53.30;;;;;;20672180;28;20141;-59
2022/03/27 18:00:48;;;;;;;17.90;3.38;;;15.90;53.50;;;;;;20672910;28;20459;-59
2022/03/27 18:10:50;;;;;;;21.30;4.25;;;15.80;53.60;;;;;;20671108;28;20042;-61
2022/03/27 18:20:54;;;;;;;18.40;4.65;;;15.70;53.90;;;;;;20669890;28;20137;-60
2022/03/27 18:30:56;;;;;;;13.52;3.97;;;15.60;54.20;;;;;;20668926;28;20080;-59
2022/03/27 18:40:59;;;;;;;22.25;4.65;;;15.50;54.30;;;;;;20668332;28;20058;-59
2022/03/27 18:51:01;;;;;;;23.85;6.28;;;15.40;54.80;;;;;;20668498;28;20053;-58
2022/03/27 19:01:04;;;;;;;20.55;4.80;;;15.20;55.40;;;;;;20666163;28;20066;-60
2022/03/27 19:11:06;;;;;;;31.05;5.45;;;15.20;55.80;;;;;;20666692;28;20065;-61
2022/03/27 19:21:13;;;;;;;25.33;4.80;;;15.20;56.00;;;;;;20665317;28;20058;-61
2022/03/27 19:31:17;;;;;;;17.65;4.75;;;15.20;56.20;;;;;;20664805;28;20062;-61
2022/03/27 19:41:19;;;;;;;23.23;5.95;;;15.20;56.40;;;;;;20664509;28;20092;-59
2022/03/27 19:51:21;;;;;;;23.55;5.32;;;15.10;56.50;;;;;;20664237;28;20133;-60
2022/03/27 20:01:23;;;;;;;19.77;5.30;;;15.10;56.60;;;;;;20665581;28;20491;-61
2022/03/27 20:11:25;;;;;;;26.65;6.25;;;15.00;56.80;;;;;;20664963;28;20062;-58
2022/03/27 20:21:27;;;;;;;23.75;5.80;;;15.00;57.20;;;;;;20664461;28;20054;-61
2022/03/27 20:31:31;;;;;;;14.38;4.00;;;14.90;57.50;;;;;;20672119;28;20054;-60
2022/03/27 20:41:33;;;;;;;22.55;4.95;;;14.90;57.50;;;;;;20679055;28;20054;-61
2022/03/27 20:51:35;;;;;;;20.38;5.70;;;14.80;57.80;;;;;;20677104;28;20078;-61
2022/03/27 21:01:37;;;;;;;16.75;4.97;;;14.60;58.30;;;;;;20677111;28;20119;-60
2022/03/27 21:11:39;;;;;;;19.25;5.78;;;14.40;58.80;;;;;;20677080;28;20108;-60
2022/03/27 21:21:41;;;;;;;22.52;5.90;;;14.30;59.40;;;;;;20675429;28;20054;-61
2022/03/27 21:31:43;;;;;;;23.23;6.25;;;14.20;60.10;;;;;;20674130;28;20046;-60
2022/03/27 21:41:45;;;;;;;15.13;5.60;;;14.00;60.80;;;;;;20672766;28;20054;-63
2022/03/27 21:51:46;;;;;;;19.90;4.97;;;13.80;61.10;;;;;;20673283;28;20093;-60
2022/03/27 22:01:48;;;;;;;15.23;5.65;;;13.70;61.60;;;;;;20672076;28;20513;-61
2022/03/27 22:11:50;;;;;;;15.40;5.25;;;13.40;62.20;;;;;;20671428;28;20337;-60
2022/03/27 22:21:51;;;;;;;15.63;5.35;;;13.30;62.70;;;;;;20671461;28;20058;-61
2022/03/27 22:31:54;;;;;;;18.25;5.93;;;13.20;63.00;;;;;;20670303;28;20129;-61
2022/03/27 22:41:56;;;;;;;15.70;6.22;;;13.10;63.40;;;;;;20669649;28;20057;-62
2022/03/27 22:52:00;;;;;;;22.42;6.72;;;12.90;64.00;;;;;;20667407;28;20056;-60
2022/03/27 23:02:03;;;;;;;15.02;6.07;;;12.70;64.50;;;;;;20670242;28;20481;-59
2022/03/27 23:12:05;;;;;;;13.98;5.95;;;12.60;65.00;;;;;;20668050;28;20499;-60
2022/03/27 23:22:08;;;;;;;21.85;7.35;;;12.50;65.30;;;;;;20666891;28;20065;-60
2022/03/27 23:32:11;;;;;;;18.98;7.07;;;12.40;65.60;;;;;;20666111;28;20050;-62
2022/03/27 23:42:14;;;;;;;17.50;6.72;;;12.30;66.10;;;;;;20665940;28;20054;-59
2022/03/27 23:52:15;;;;;;;14.60;6.32;;;12.20;66.50;;;;;;20666280;28;20050;-59
